Time;durP1;ratioP1;P1;durP2;ratioP2;P2;SDS_P1;SDS_P2;PMS_P1;PMS_P2;Temp;Humidity;BMP_temperature;BMP_pressure;BME280_temperature;BME280_humidity;BME280_pressure;Samples;Min_cycle;Max_cycle;Signal;HPM_P1;HPM_P2
2021/06/25 00:01:43;;;;;;;5.85;3.85;;;18.40;99.90;;;;;;5011986;28;20034;-70
2021/06/25 00:04:09;;;;;;;7.93;3.92;;;18.40;99.90;;;;;;4994070;28;20042;-69
2021/06/25 00:06:35;;;;;;;7.35;4.10;;;18.20;99.90;;;;;;5010798;28;20048;-69
2021/06/25 00:09:01;;;;;;;6.15;3.83;;;18.30;99.90;;;;;;5012026;28;20037;-70
2021/06/25 00:11:27;;;;;;;5.50;3.33;;;18.30;99.90;;;;;;4995611;28;20899;-69
2021/06/25 00:13:54;;;;;;;8.80;5.60;;;18.30;99.90;;;;;;5015717;28;20033;-68
2021/06/25 00:16:20;;;;;;;7.53;4.43;;;18.30;99.90;;;;;;5015252;28;20034;-70
2021/06/25 00:18:46;;;;;;;9.32;4.78;;;18.20;99.90;;;;;;4997906;28;20045;-69
2021/06/25 00:21:12;;;;;;;8.52;4.80;;;18.20;99.90;;;;;;5015453;28;20474;-69
2021/06/25 00:23:37;;;;;;;7.32;4.70;;;18.20;99.90;;;;;;5015187;28;20038;-69
2021/06/25 00:26:04;;;;;;;8.30;4.63;;;18.20;99.90;;;;;;5015196;28;20030;-70
2021/06/25 00:28:30;;;;;;;9.50;5.18;;;18.10;99.90;;;;;;4981542;28;20503;-69
2021/06/25 00:30:55;;;;;;;7.03;5.20;;;18.10;99.90;;;;;;5015182;28;20048;-70
2021/06/25 00:33:21;;;;;;;9.48;5.60;;;18.10;99.90;;;;;;4997775;28;20041;-70
2021/06/25 00:35:47;;;;;;;11.25;6.00;;;18.10;99.90;;;;;;4997757;28;20044;-69
2021/06/25 00:38:14;;;;;;;8.18;6.35;;;18.10;99.90;;;;;;4997289;28;20026;-69
2021/06/25 00:40:39;;;;;;;10.18;6.40;;;18.20;99.90;;;;;;4997817;28;20069;-70
2021/06/25 00:43:05;;;;;;;10.00;6.97;;;18.20;99.90;;;;;;5014869;28;20072;-70
2021/06/25 00:45:31;;;;;;;10.32;7.25;;;18.00;99.90;;;;;;4997577;28;20034;-69
2021/06/25 00:47:58;;;;;;;10.20;7.28;;;18.00;99.90;;;;;;4997369;28;20044;-70
2021/06/25 00:50:28;;;;;;;9.90;7.03;;;18.00;99.90;;;;;;5014619;28;20155;-69
2021/06/25 00:52:56;;;;;;;10.88;7.30;;;18.00;99.90;;;;;;4997817;28;20053;-69
2021/06/25 00:55:25;;;;;;;10.15;6.82;;;18.00;99.90;;;;;;4997404;28;20395;-69
2021/06/25 00:57:51;;;;;;;11.80;7.07;;;17.90;99.90;;;;;;4997309;28;20418;-69
2021/06/25 01:00:18;;;;;;;10.65;7.50;;;17.90;99.90;;;;;;4996907;28;20038;-69
2021/06/25 01:02:44;;;;;;;10.13;7.72;;;17.90;99.90;;;;;;4997120;28;20040;-69
2021/06/25 01:05:13;;;;;;;10.57;7.68;;;17.80;99.90;;;;;;4977475;28;20411;-70
2021/06/25 01:07:39;;;;;;;10.75;7.68;;;17.90;99.90;;;;;;4995024;28;20483;-69
2021/06/25 01:10:08;;;;;;;11.38;6.75;;;18.00;99.90;;;;;;4994770;28;20038;-70
2021/06/25 01:12:35;;;;;;;12.50;7.97;;;17.90;99.90;;;;;;4994764;28;20069;-69
2021/06/25 01:15:01;;;;;;;12.30;7.30;;;17.90;99.90;;;;;;4993719;28;20038;-69
2021/06/25 01:17:39;;;;;;;10.45;7.13;;;17.90;99.90;;;;;;4994567;28;20030;-69
2021/06/25 01:20:10;;;;;;;8.40;5.78;;;17.90;99.90;;;;;;4993788;28;20034;-69
2021/06/25 01:22:41;;;;;;;8.70;6.38;;;17.90;99.90;;;;;;4992602;28;20026;-69
2021/06/25 01:25:09;;;;;;;8.45;5.57;;;17.90;99.90;;;;;;4993433;28;20034;-69
2021/06/25 01:27:37;;;;;;;10.45;6.60;;;17.80;99.90;;;;;;4994377;28;20514;-70
2021/06/25 01:30:13;;;;;;;12.80;7.63;;;17.70;99.90;;;;;;4993551;28;20034;-69
2021/06/25 01:32:40;;;;;;;9.32;6.85;;;17.60;99.90;;;;;;4994686;28;20026;-69
2021/06/25 01:35:08;;;;;;;8.55;7.10;;;17.60;99.90;;;;;;4994387;28;20097;-71
2021/06/25 01:37:34;;;;;;;11.00;7.78;;;17.60;99.90;;;;;;4992967;28;20101;-69
2021/06/25 01:40:00;;;;;;;14.88;9.05;;;17.50;99.90;;;;;;4993450;28;20034;-68
2021/06/25 01:42:28;;;;;;;13.55;8.75;;;17.50;99.90;;;;;;4992694;28;20081;-69
2021/06/25 01:44:57;;;;;;;13.35;8.82;;;17.50;99.90;;;;;;4994463;28;20052;-69
2021/06/25 01:47:23;;;;;;;14.10;9.63;;;17.50;99.90;;;;;;4993117;28;20030;-70
2021/06/25 01:49:49;;;;;;;13.52;9.65;;;17.50;99.90;;;;;;4994356;28;20452;-69
2021/06/25 01:52:20;;;;;;;14.70;9.15;;;17.50;99.90;;;;;;4993799;28;20062;-69
2021/06/25 01:54:47;;;;;;;;;;;17.50;99.90;;;;;;4994696;28;20084;-69
2021/06/25 01:57:14;;;;;;;12.00;9.13;;;17.50;99.90;;;;;;4994142;28;19975;-69
2021/06/25 01:59:43;;;;;;;14.27;8.77;;;17.50;99.90;;;;;;4992535;28;20038;-69
2021/06/25 02:02:10;;;;;;;13.82;9.32;;;17.50;99.90;;;;;;4994104;28;20022;-69
2021/06/25 02:04:36;;;;;;;15.90;10.32;;;17.50;99.90;;;;;;4992393;28;20053;-68
2021/06/25 02:07:01;;;;;;;21.38;10.10;;;17.50;99.90;;;;;;4994040;28;20034;-69
2021/06/25 02:09:27;;;;;;;16.33;10.70;;;17.50;99.90;;;;;;4993821;28;20064;-70
2021/06/25 02:11:53;;;;;;;19.13;11.25;;;17.50;99.90;;;;;;4993575;28;20395;-69
2021/06/25 02:14:20;;;;;;;20.80;11.77;;;17.50;99.90;;;;;;5008712;28;20045;-70
2021/06/25 02:16:46;;;;;;;23.23;14.20;;;17.50;99.90;;;;;;4992495;28;20030;-69
2021/06/25 02:19:11;;;;;;;23.25;15.77;;;17.50;99.90;;;;;;4992556;28;20030;-69
2021/06/25 02:21:37;;;;;;;24.73;16.33;;;17.40;99.90;;;;;;5008797;28;20088;-69
2021/06/25 02:24:04;;;;;;;23.63;16.70;;;17.50;99.90;;;;;;4993540;28;20081;-69
2021/06/25 02:26:30;;;;;;;25.73;17.65;;;17.40;99.90;;;;;;4993559;28;20038;-69
2021/06/25 02:28:55;;;;;;;30.35;19.23;;;17.30;99.90;;;;;;4993362;28;20041;-68
2021/06/25 02:31:21;;;;;;;28.08;17.95;;;17.30;99.90;;;;;;4993561;28;20066;-70
2021/06/25 02:33:47;;;;;;;28.23;19.30;;;17.30;99.90;;;;;;4993167;28;20495;-69
2021/06/25 02:36:13;;;;;;;29.98;19.17;;;17.30;99.90;;;;;;4993675;28;20395;-70
2021/06/25 02:38:38;;;;;;;30.92;20.27;;;17.30;99.90;;;;;;5008334;28;20105;-70
2021/06/25 02:41:04;;;;;;;32.05;21.63;;;17.30;99.90;;;;;;4993142;28;20065;-70
2021/06/25 02:43:30;;;;;;;37.55;22.65;;;17.30;99.90;;;;;;4992847;28;20470;-69
2021/06/25 02:45:56;;;;;;;32.55;21.85;;;17.20;99.90;;;;;;4993200;28;20030;-69
2021/06/25 02:48:22;;;;;;;31.83;21.58;;;17.20;99.90;;;;;;5008383;28;20041;-69
2021/06/25 02:50:47;;;;;;;35.50;22.38;;;17.20;99.90;;;;;;4993086;28;20414;-69
2021/06/25 02:53:13;;;;;;;34.92;22.35;;;17.20;99.90;;;;;;4992812;28;20617;-69
2021/06/25 02:55:50;;;;;;;35.33;23.45;;;17.20;99.90;;;;;;4993166;28;20109;-69
2021/06/25 02:58:21;;;;;;;34.97;21.77;;;17.10;99.90;;;;;;4991998;28;20038;-70
2021/06/25 03:00:49;;;;;;;35.60;23.20;;;17.10;99.90;;;;;;4993326;28;20034;-69
2021/06/25 03:03:16;;;;;;;35.63;24.10;;;17.10;99.90;;;;;;4992494;28;20529;-69
2021/06/25 03:05:42;;;;;;;38.88;23.42;;;17.10;99.90;;;;;;4995061;28;20065;-68
2021/06/25 03:08:08;;;;;;;39.58;24.33;;;17.10;99.90;;;;;;4978967;28;20117;-68
2021/06/25 03:10:34;;;;;;;36.55;24.52;;;17.10;99.90;;;;;;5012586;28;20112;-68
2021/06/25 03:13:00;;;;;;;39.00;24.00;;;17.20;99.90;;;;;;5012629;28;20030;-69
2021/06/25 03:15:26;;;;;;;35.90;23.13;;;17.20;99.90;;;;;;5012571;28;20040;-69
2021/06/25 03:17:52;;;;;;;34.67;23.33;;;17.20;99.90;;;;;;5012622;28;20045;-69
2021/06/25 03:20:18;;;;;;;37.97;23.40;;;17.20;99.90;;;;;;5012429;28;20490;-69
2021/06/25 03:22:44;;;;;;;38.03;24.25;;;17.20;99.90;;;;;;4994931;28;20034;-70
2021/06/25 03:25:10;;;;;;;38.10;25.05;;;17.20;99.90;;;;;;4995125;28;20030;-69
2021/06/25 03:27:37;;;;;;;36.35;23.85;;;17.20;99.90;;;;;;5011935;28;20038;-69
2021/06/25 03:30:08;;;;;;;37.67;24.88;;;17.20;99.90;;;;;;5012498;28;20475;-68
2021/06/25 03:32:34;;;;;;;35.35;24.73;;;17.10;99.90;;;;;;4994675;28;20480;-68
2021/06/25 03:35:02;;;;;;;41.47;26.02;;;17.10;99.90;;;;;;5012312;28;20065;-70
2021/06/25 03:37:28;;;;;;;42.65;26.30;;;17.10;99.90;;;;;;4994657;28;20048;-69
2021/06/25 03:39:54;;;;;;;35.45;23.98;;;17.10;99.90;;;;;;4994743;28;20069;-69
2021/06/25 03:42:20;;;;;;;39.20;25.05;;;17.10;99.90;;;;;;4994428;28;20030;-69
2021/06/25 03:44:45;;;;;;;38.97;25.27;;;17.10;99.90;;;;;;4994739;28;20088;-69
2021/06/25 03:47:11;;;;;;;34.15;24.63;;;17.20;99.90;;;;;;5015022;28;20132;-69
2021/06/25 03:49:37;;;;;;;42.30;26.50;;;17.20;99.90;;;;;;5012410;28;20048;-69
2021/06/25 03:52:03;;;;;;;36.47;25.17;;;17.20;99.90;;;;;;4998354;28;20038;-68
2021/06/25 03:54:29;;;;;;;39.88;25.52;;;17.20;99.90;;;;;;5015867;28;20521;-71
2021/06/25 03:56:55;;;;;;;39.83;25.00;;;17.10;99.90;;;;;;5015936;28;20061;-71
2021/06/25 03:59:20;;;;;;;43.17;26.38;;;17.10;99.90;;;;;;5029061;28;20033;-71
2021/06/25 04:01:47;;;;;;;40.53;24.67;;;17.20;99.90;;;;;;5017662;28;20068;-71
2021/06/25 04:04:13;;;;;;;36.80;24.20;;;17.20;99.90;;;;;;5025706;28;20041;-75
2021/06/25 04:06:39;;;;;;;39.40;26.23;;;17.20;99.90;;;;;;5015442;28;20026;-71
2021/06/25 04:09:05;;;;;;;37.90;24.95;;;17.20;99.90;;;;;;4997745;28;20156;-71
2021/06/25 04:11:31;;;;;;;37.10;25.17;;;17.30;99.90;;;;;;5015755;28;20037;-72
2021/06/25 04:13:57;;;;;;;35.88;23.85;;;17.30;99.90;;;;;;4998025;28;20040;-72
2021/06/25 04:16:23;;;;;;;35.05;24.08;;;17.30;99.90;;;;;;5015657;28;20116;-70
2021/06/25 04:18:49;;;;;;;37.38;25.30;;;17.30;99.90;;;;;;5015110;28;20121;-70
2021/06/25 04:21:15;;;;;;;37.60;25.55;;;17.30;99.90;;;;;;4997857;28;20072;-70
2021/06/25 04:23:41;;;;;;;34.33;23.55;;;17.30;99.90;;;;;;4997659;28;20030;-71
2021/06/25 04:26:07;;;;;;;40.42;25.80;;;17.30;99.90;;;;;;4997985;28;20113;-70
2021/06/25 04:28:35;;;;;;;39.85;24.50;;;17.30;99.90;;;;;;5022091;28;20482;-70
2021/06/25 04:31:02;;;;;;;35.10;24.23;;;17.40;99.90;;;;;;5017436;28;20116;-71
2021/06/25 04:33:27;;;;;;;37.63;24.80;;;17.50;99.90;;;;;;5034860;28;20026;-72
2021/06/25 04:35:53;;;;;;;34.10;23.38;;;17.40;99.90;;;;;;5033359;28;20075;-71
2021/06/25 04:38:19;;;;;;;37.50;24.15;;;17.40;99.90;;;;;;5034938;28;20083;-72
2021/06/25 04:40:45;;;;;;;39.03;24.50;;;17.40;99.90;;;;;;5016760;28;20069;-72
2021/06/25 04:43:15;;;;;;;39.58;24.60;;;17.50;99.90;;;;;;5034488;28;20032;-72
2021/06/25 04:45:42;;;;;;;35.28;24.90;;;17.50;99.90;;;;;;5017104;28;20037;-71
2021/06/25 04:48:14;;;;;;;33.20;23.35;;;17.60;99.90;;;;;;5034396;28;20032;-71
2021/06/25 04:50:42;;;;;;;36.15;23.80;;;17.70;99.90;;;;;;5034149;28;20046;-64
2021/06/25 04:53:08;;;;;;;35.47;23.85;;;17.70;99.90;;;;;;5034634;28;20033;-63
2021/06/25 04:55:41;;;;;;;35.20;23.42;;;17.80;99.90;;;;;;5034491;28;20027;-65
2021/06/25 04:58:16;;;;;;;36.72;24.30;;;17.80;99.90;;;;;;5000166;28;20038;-65
2021/06/25 05:00:43;;;;;;;38.88;24.80;;;17.80;99.90;;;;;;4996423;28;20494;-65
2021/06/25 05:03:10;;;;;;;40.00;24.20;;;17.80;99.90;;;;;;5014513;28;20471;-64
2021/06/25 05:05:38;;;;;;;32.78;23.75;;;17.90;99.90;;;;;;5013297;28;20026;-64
2021/06/25 05:08:05;;;;;;;33.05;23.80;;;17.90;99.90;;;;;;5014443;28;20048;-64
2021/06/25 05:10:31;;;;;;;38.35;25.55;;;17.90;99.90;;;;;;5034197;28;20037;-64
2021/06/25 05:12:58;;;;;;;36.03;25.17;;;17.90;99.90;;;;;;5034303;28;20030;-64
2021/06/25 05:15:25;;;;;;;39.17;25.98;;;17.80;99.90;;;;;;5034227;28;20053;-64
2021/06/25 05:17:51;;;;;;;35.95;24.75;;;17.90;99.90;;;;;;5033912;28;20036;-65
2021/06/25 05:20:20;;;;;;;33.22;24.83;;;17.90;99.90;;;;;;5033844;28;20464;-64
2021/06/25 05:22:47;;;;;;;36.85;25.20;;;17.90;99.90;;;;;;5033915;28;20140;-64
2021/06/25 05:25:14;;;;;;;40.67;25.55;;;17.90;99.90;;;;;;5015799;28;20037;-64
2021/06/25 05:27:40;;;;;;;42.28;27.42;;;18.00;99.90;;;;;;5033026;28;20021;-63
2021/06/25 05:30:10;;;;;;;41.55;27.20;;;18.00;99.90;;;;;;5013789;28;20478;-64
2021/06/25 05:32:38;;;;;;;37.88;26.83;;;17.80;99.90;;;;;;5014019;28;20094;-70
2021/06/25 05:35:05;;;;;;;39.88;27.70;;;17.90;99.90;;;;;;5011712;28;20084;-70
2021/06/25 05:37:31;;;;;;;37.63;25.95;;;17.90;99.90;;;;;;5011175;28;20101;-71
2021/06/25 05:39:56;;;;;;;43.22;28.10;;;17.90;99.90;;;;;;5012610;28;20140;-70
2021/06/25 05:42:22;;;;;;;41.17;29.17;;;18.00;99.90;;;;;;5013646;28;20029;-70
2021/06/25 05:44:48;;;;;;;45.97;29.05;;;18.00;99.90;;;;;;5013189;28;20129;-70
2021/06/25 05:47:14;;;;;;;47.22;29.23;;;18.00;99.90;;;;;;5013728;28;20414;-70
2021/06/25 05:49:40;;;;;;;42.20;29.80;;;18.10;99.90;;;;;;5013552;28;20037;-70
2021/06/25 05:52:06;;;;;;;43.78;30.88;;;18.00;99.90;;;;;;5012083;28;20046;-70
2021/06/25 05:54:32;;;;;;;43.78;29.30;;;18.10;99.90;;;;;;5013228;28;20042;-70
2021/06/25 05:56:57;;;;;;;43.75;30.67;;;18.10;99.90;;;;;;5013171;28;20041;-70
2021/06/25 05:59:23;;;;;;;46.78;29.77;;;18.20;99.90;;;;;;5008952;28;20041;-72
2021/06/25 06:01:49;;;;;;;47.05;31.85;;;18.20;99.90;;;;;;5033384;28;20374;-71
2021/06/25 06:04:15;;;;;;;43.67;30.92;;;18.20;99.90;;;;;;5032675;28;20045;-71
2021/06/25 06:06:41;;;;;;;44.15;29.42;;;18.20;99.90;;;;;;5032930;28;20104;-71
2021/06/25 06:09:07;;;;;;;43.75;30.35;;;18.30;99.90;;;;;;5032613;28;20030;-71
2021/06/25 06:11:32;;;;;;;47.00;30.23;;;18.30;99.90;;;;;;5032088;28;20482;-72
2021/06/25 06:13:58;;;;;;;44.28;30.70;;;18.40;99.90;;;;;;5030688;28;20025;-71
2021/06/25 06:16:24;;;;;;;47.42;32.97;;;18.40;99.90;;;;;;5032883;28;20095;-70
2021/06/25 06:18:50;;;;;;;45.13;30.15;;;18.50;99.90;;;;;;5033062;28;20120;-71
2021/06/25 06:21:22;;;;;;;44.63;28.48;;;18.70;99.90;;;;;;5032840;28;20061;-70
2021/06/25 06:32:23;;;;;;;39.95;28.38;;;19.20;99.90;;;;;;5032782;28;20041;-71
2021/06/25 06:35:20;;;;;;;45.08;28.77;;;19.30;99.90;;;;;;5014941;28;20025;-71
2021/06/25 06:41:17;;;;;;;44.15;28.98;;;19.70;99.90;;;;;;4940799;29;20094;-71
2021/06/25 06:43:48;;;;;;;42.85;27.38;;;19.70;99.90;;;;;;4951955;29;20042;-72
2021/06/25 06:46:15;;;;;;;39.08;26.95;;;19.70;99.90;;;;;;5018903;28;20068;-72
2021/06/25 06:49:02;;;;;;;37.97;25.38;;;19.80;99.90;;;;;;5014564;28;20085;-72
2021/06/25 06:51:32;;;;;;;40.60;25.20;;;19.80;99.90;;;;;;5014930;28;20466;-72
2021/06/25 06:53:59;;;;;;;39.20;28.38;;;19.70;99.90;;;;;;5032070;28;20029;-72
2021/06/25 06:56:26;;;;;;;37.22;27.17;;;19.80;99.90;;;;;;5014926;28;20026;-73
2021/06/25 06:58:53;;;;;;;33.53;23.63;;;19.80;99.90;;;;;;5032254;28;20037;-71
2021/06/25 07:01:21;;;;;;;36.08;24.73;;;19.90;99.90;;;;;;5032406;28;20136;-73
2021/06/25 07:03:47;;;;;;;41.17;27.52;;;19.80;99.90;;;;;;5014231;28;20057;-73
2021/06/25 07:06:14;;;;;;;41.30;27.02;;;20.00;99.90;;;;;;5014362;28;20556;-73
2021/06/25 07:08:40;;;;;;;38.13;26.40;;;20.10;99.90;;;;;;5014295;28;20512;-73
2021/06/25 07:11:06;;;;;;;39.65;27.63;;;20.00;99.90;;;;;;5013626;28;20132;-73
2021/06/25 07:13:32;;;;;;;35.42;26.13;;;19.90;99.90;;;;;;4997962;28;20124;-73
2021/06/25 07:15:58;;;;;;;42.40;27.73;;;20.10;99.90;;;;;;5014627;28;20375;-73
2021/06/25 07:18:25;;;;;;;43.92;30.88;;;20.30;99.90;;;;;;5014950;28;20040;-73
2021/06/25 07:20:51;;;;;;;40.88;28.67;;;20.20;99.90;;;;;;5032833;28;20053;-73
2021/06/25 07:23:17;;;;;;;38.58;27.00;;;20.30;99.90;;;;;;5036507;28;20045;-72
2021/06/25 07:25:43;;;;;;;37.97;26.63;;;20.30;99.90;;;;;;5036075;28;20032;-72
2021/06/25 07:28:09;;;;;;;31.77;24.83;;;20.30;99.90;;;;;;5018283;28;20386;-72
2021/06/25 07:30:38;;;;;;;39.67;29.13;;;20.40;99.90;;;;;;5036237;28;20033;-72
2021/06/25 07:33:05;;;;;;;38.75;27.67;;;20.40;99.90;;;;;;5018960;28;20108;-72
2021/06/25 07:35:31;;;;;;;38.20;26.42;;;20.30;99.90;;;;;;5036229;28;20029;-72
2021/06/25 07:37:57;;;;;;;35.03;26.08;;;20.40;99.90;;;;;;5036032;28;20064;-72
2021/06/25 07:40:22;;;;;;;37.10;26.08;;;20.30;99.90;;;;;;5035821;28;20687;-72
2021/06/25 07:42:49;;;;;;;36.78;26.88;;;20.40;99.90;;;;;;5035799;28;20040;-73
2021/06/25 07:47:59;;;;;;;43.53;27.70;;;20.70;99.90;;;;;;5034726;28;20091;-71
2021/06/25 07:50:25;;;;;;;36.13;27.02;;;20.80;99.90;;;;;;5035405;28;20075;-72
2021/06/25 07:52:51;;;;;;;40.85;26.25;;;20.70;99.90;;;;;;5035000;28;20075;-71
2021/06/25 07:55:16;;;;;;;35.60;26.50;;;20.50;99.90;;;;;;5017797;28;20029;-72
2021/06/25 07:57:43;;;;;;;37.38;25.52;;;20.30;99.90;;;;;;5035189;28;20029;-72
2021/06/25 08:00:11;;;;;;;42.95;26.90;;;20.40;99.90;;;;;;5017034;28;20485;-72
2021/06/25 08:02:37;;;;;;;44.35;29.52;;;20.40;99.90;;;;;;5034878;28;20493;-72
2021/06/25 08:05:04;;;;;;;42.90;29.55;;;20.20;99.90;;;;;;5034715;28;20088;-72
2021/06/25 08:07:30;;;;;;;43.58;29.60;;;20.00;99.90;;;;;;5017138;28;20033;-72
2021/06/25 08:09:55;;;;;;;40.10;27.20;;;19.80;99.90;;;;;;5034464;28;20553;-73
2021/06/25 08:12:21;;;;;;;42.00;29.58;;;19.70;99.90;;;;;;5017506;28;20145;-72
2021/06/25 08:14:47;;;;;;;45.38;28.25;;;19.80;99.90;;;;;;5014750;28;20119;-71
2021/06/25 08:17:13;;;;;;;39.25;25.92;;;19.70;99.90;;;;;;5034878;28;20041;-71
2021/06/25 08:19:38;;;;;;;43.80;27.63;;;19.90;99.90;;;;;;5034669;28;20045;-73
2021/06/25 08:22:05;;;;;;;36.92;26.73;;;20.10;99.90;;;;;;5033214;28;20703;-73
2021/06/25 08:24:33;;;;;;;42.85;29.10;;;20.20;99.90;;;;;;5035015;28;20045;-73
2021/06/25 08:26:59;;;;;;;41.05;26.77;;;20.30;99.90;;;;;;5017493;28;20029;-73
2021/06/25 08:29:25;;;;;;;41.10;27.40;;;20.40;99.90;;;;;;5017456;28;20048;-72
2021/06/25 08:31:51;;;;;;;36.28;26.20;;;20.50;99.90;;;;;;5034514;28;20478;-72
2021/06/25 08:34:17;;;;;;;37.90;25.52;;;20.60;99.90;;;;;;5034820;28;20084;-72
2021/06/25 08:36:42;;;;;;;42.22;26.65;;;20.80;99.90;;;;;;5035021;28;20100;-72
2021/06/25 08:39:09;;;;;;;39.10;25.88;;;20.90;99.90;;;;;;5017068;28;20037;-72
2021/06/25 08:41:37;;;;;;;39.00;25.83;;;21.00;99.90;;;;;;5017234;28;20030;-72
2021/06/25 08:44:04;;;;;;;40.28;27.95;;;21.10;99.90;;;;;;5017042;28;20045;-72
2021/06/25 08:46:32;;;;;;;34.10;23.65;;;21.50;99.90;;;;;;5034911;28;20026;-73
2021/06/25 08:49:00;;;;;;;34.47;24.90;;;21.70;99.90;;;;;;5016709;28;20037;-72
2021/06/25 08:51:26;;;;;;;39.97;27.73;;;21.90;99.90;;;;;;4972726;28;20565;-71
2021/06/25 08:53:52;;;;;;;44.30;29.75;;;21.80;99.90;;;;;;5034404;28;20060;-72
2021/06/25 08:56:19;;;;;;;41.38;26.42;;;21.70;99.90;;;;;;5034613;28;20071;-72
2021/06/25 08:58:45;;;;;;;39.38;27.63;;;21.50;99.90;;;;;;5034160;28;20052;-72
2021/06/25 09:01:12;;;;;;;37.80;25.85;;;21.40;99.90;;;;;;5034102;28;20474;-73
2021/06/25 09:03:52;;;;;;;36.00;25.27;;;21.30;99.90;;;;;;5032539;28;20041;-72
2021/06/25 09:06:17;;;;;;;34.85;24.48;;;21.20;99.90;;;;;;5017329;28;20079;-72
2021/06/25 09:08:43;;;;;;;38.42;25.98;;;21.40;99.90;;;;;;5034249;28;20037;-72
2021/06/25 09:11:26;;;;;;;36.28;25.85;;;21.60;99.90;;;;;;5016223;28;20034;-72
2021/06/25 09:14:04;;;;;;;37.15;24.85;;;21.60;99.90;;;;;;5034285;28;20116;-72
2021/06/25 09:16:38;;;;;;;37.20;26.15;;;21.50;99.90;;;;;;5033974;28;20055;-72
2021/06/25 09:19:08;;;;;;;37.40;22.85;;;21.40;99.90;;;;;;5033677;28;20033;-72
2021/06/25 09:22:00;;;;;;;33.08;23.67;;;21.60;99.90;;;;;;5000126;28;20446;-72
2021/06/25 09:24:28;;;;;;;36.58;24.92;;;21.60;99.90;;;;;;5033672;28;20466;-71
2021/06/25 09:27:05;;;;;;;36.28;25.55;;;21.60;99.90;;;;;;5034015;28;20033;-72
2021/06/25 09:29:37;;;;;;;35.30;25.23;;;21.50;99.90;;;;;;5033625;28;20379;-72
2021/06/25 09:32:09;;;;;;;36.92;24.85;;;21.30;99.90;;;;;;5033525;28;20037;-72
2021/06/25 09:34:35;;;;;;;39.67;26.38;;;21.20;99.90;;;;;;5016182;28;20037;-72
2021/06/25 09:37:03;;;;;;;38.00;27.33;;;21.30;99.90;;;;;;5033437;28;20525;-72
2021/06/25 09:39:29;;;;;;;36.90;25.75;;;21.30;99.90;;;;;;5016254;28;20033;-72
2021/06/25 09:41:55;;;;;;;37.00;26.13;;;21.20;99.90;;;;;;5016199;28;20025;-72
2021/06/25 09:44:24;;;;;;;37.05;25.95;;;21.20;99.90;;;;;;5032612;28;20033;-72
2021/06/25 09:46:52;;;;;;;39.50;26.63;;;21.20;99.90;;;;;;5033459;28;20029;-72
2021/06/25 09:49:28;;;;;;;39.03;27.30;;;21.10;99.90;;;;;;5033392;28;20034;-72
2021/06/25 09:51:58;;;;;;;37.80;26.02;;;21.20;99.90;;;;;;5015812;28;20029;-72
2021/06/25 09:54:26;;;;;;;42.37;27.50;;;21.40;99.90;;;;;;5015717;28;20045;-72
2021/06/25 09:57:14;;;;;;;36.95;27.02;;;21.50;99.90;;;;;;5033001;28;20389;-73
2021/06/25 10:02:19;;;;;;;41.22;27.13;;;21.40;99.90;;;;;;5033026;28;20167;-71
2021/06/25 10:05:14;;;;;;;41.40;28.48;;;21.60;99.90;;;;;;5033013;28;20128;-72
2021/06/25 10:07:40;;;;;;;40.03;27.08;;;21.60;99.90;;;;;;5002577;28;20045;-72
2021/06/25 10:10:11;;;;;;;44.42;29.88;;;21.10;99.90;;;;;;5015103;28;20474;-71
2021/06/25 10:12:46;;;;;;;46.08;29.40;;;21.20;99.90;;;;;;5015452;28;20025;-71
2021/06/25 10:15:13;;;;;;;37.78;25.45;;;21.30;99.90;;;;;;5032724;28;20481;-71
2021/06/25 10:17:41;;;;;;;39.10;26.88;;;21.30;99.90;;;;;;5032755;28;20045;-72
2021/06/25 10:20:10;;;;;;;37.22;25.95;;;21.40;99.90;;;;;;5015653;28;20107;-71
2021/06/25 10:22:40;;;;;;;41.55;27.67;;;21.60;99.90;;;;;;5032709;28;20363;-71
2021/06/25 10:25:08;;;;;;;39.58;26.08;;;21.70;99.90;;;;;;5014788;28;20029;-72
2021/06/25 10:27:35;;;;;;;41.33;25.55;;;21.80;99.90;;;;;;5032331;28;20071;-71
2021/06/25 10:30:04;;;;;;;38.30;26.92;;;21.80;99.90;;;;;;5015062;28;20041;-73
2021/06/25 10:32:30;;;;;;;29.08;20.92;;;21.90;99.90;;;;;;5015109;28;20034;-72
2021/06/25 10:34:57;;;;;;;37.47;23.58;;;22.20;99.90;;;;;;5032461;28;20116;-71
2021/06/25 10:37:28;;;;;;;36.53;24.95;;;22.60;99.90;;;;;;5014757;28;20038;-71
2021/06/25 10:39:54;;;;;;;31.17;22.02;;;22.80;99.90;;;;;;5015513;28;20521;-70
2021/06/25 10:42:20;;;;;;;30.20;21.83;;;23.10;99.90;;;;;;5015097;28;20117;-71
2021/06/25 10:44:56;;;;;;;29.67;19.52;;;23.30;99.90;;;;;;5014938;28;20037;-71
2021/06/25 10:47:32;;;;;;;27.25;18.58;;;23.40;99.90;;;;;;5032269;28;20036;-72
2021/06/25 10:50:01;;;;;;;28.98;22.38;;;23.40;99.90;;;;;;4998100;28;20108;-68
2021/06/25 10:52:36;;;;;;;29.63;21.38;;;23.60;99.90;;;;;;5032274;28;20037;-75
2021/06/25 10:55:09;;;;;;;29.17;17.92;;;23.40;99.90;;;;;;5032296;28;20040;-73
2021/06/25 10:57:55;;;;;;;22.30;17.30;;;23.30;99.90;;;;;;5032320;28;20431;-72
2021/06/25 11:00:47;;;;;;;28.60;18.85;;;23.20;99.90;;;;;;5030297;28;20033;-73
2021/06/25 11:03:48;;;;;;;25.88;19.00;;;23.10;99.90;;;;;;5016507;28;20033;-72
2021/06/25 11:06:51;;;;;;;28.23;20.23;;;22.60;99.90;;;;;;4954705;28;20448;-72
2021/06/25 11:09:16;;;;;;;28.95;21.25;;;22.50;99.90;;;;;;4951552;29;20513;-73
2021/06/25 11:11:42;;;;;;;31.88;21.10;;;22.50;99.90;;;;;;5000550;28;20057;-73
2021/06/25 11:14:27;;;;;;;33.17;22.52;;;22.90;99.90;;;;;;4994656;28;20018;-73
2021/06/25 11:16:53;;;;;;;27.23;19.90;;;22.90;99.90;;;;;;5012162;28;20057;-73
2021/06/25 11:19:40;;;;;;;30.02;21.50;;;22.30;99.90;;;;;;4994725;28;20119;-72
2021/06/25 11:22:39;;;;;;;29.38;20.80;;;22.10;99.90;;;;;;5012144;28;20490;-73
2021/06/25 11:25:13;;;;;;;35.80;21.48;;;22.00;99.90;;;;;;5012269;28;20030;-73
2021/06/25 11:28:21;;;;;;;31.08;21.50;;;21.90;99.90;;;;;;4994820;28;20075;-71
2021/06/25 11:31:03;;;;;;;32.80;22.30;;;22.00;99.90;;;;;;5011938;28;20592;-71
2021/06/25 11:33:47;;;;;;;35.60;23.00;;;22.10;99.90;;;;;;5012062;28;20116;-71
2021/06/25 11:36:13;;;;;;;30.02;22.13;;;21.90;99.90;;;;;;5011890;28;20072;-72
2021/06/25 11:39:15;;;;;;;33.65;23.92;;;22.00;99.90;;;;;;5011987;28;20426;-72
2021/06/25 11:42:14;;;;;;;29.45;21.08;;;21.90;99.90;;;;;;5012162;28;20030;-72
2021/06/25 11:44:47;;;;;;;32.85;22.15;;;22.30;99.90;;;;;;5011971;28;20026;-72
2021/06/25 11:47:23;;;;;;;32.13;23.02;;;22.60;99.90;;;;;;5012146;28;20034;-72
2021/06/25 11:52:26;;;;;;;36.33;22.45;;;23.10;99.90;;;;;;5012255;28;20502;-71
2021/06/25 11:54:58;;;;;;;27.10;19.85;;;23.60;99.90;;;;;;5011785;28;20046;-71
2021/06/25 11:57:29;;;;;;;29.25;19.88;;;23.50;99.90;;;;;;5011775;28;20030;-71
2021/06/25 12:00:11;;;;;;;28.92;20.73;;;24.40;99.90;;;;;;5011850;28;20030;-72
2021/06/25 12:02:46;;;;;;;34.45;22.15;;;24.60;99.20;;;;;;5011926;28;20038;-71
2021/06/25 12:05:20;;;;;;;29.33;20.40;;;24.50;98.70;;;;;;4978046;28;20046;-72
2021/06/25 12:08:14;;;;;;;29.48;21.25;;;24.40;99.30;;;;;;5016709;28;20022;-72
2021/06/25 12:10:44;;;;;;;27.02;18.77;;;23.90;99.40;;;;;;5001533;28;20044;-72
2021/06/25 12:13:11;;;;;;;27.58;20.25;;;23.60;99.90;;;;;;5015582;28;20022;-72
2021/06/25 12:15:50;;;;;;;26.38;19.02;;;23.50;99.90;;;;;;5015322;28;20049;-72
2021/06/25 12:18:26;;;;;;;29.25;18.58;;;23.30;99.90;;;;;;4997822;28;20414;-72
2021/06/25 12:21:15;;;;;;;25.65;17.35;;;23.20;99.90;;;;;;5015560;28;20090;-72
2021/06/25 12:23:42;;;;;;;27.92;17.67;;;23.20;99.90;;;;;;5015294;28;20430;-72
2021/06/25 12:26:09;;;;;;;23.95;16.45;;;23.10;99.90;;;;;;5015166;28;20040;-72
2021/06/25 12:28:36;;;;;;;28.20;16.67;;;23.20;99.90;;;;;;4997364;28;20392;-72
2021/06/25 12:31:15;;;;;;;26.67;17.95;;;23.20;99.90;;;;;;5014955;28;20359;-72
2021/06/25 12:33:41;;;;;;;25.63;19.33;;;23.30;99.90;;;;;;4997618;28;20050;-72
2021/06/25 12:36:10;;;;;;;24.58;17.17;;;23.20;99.90;;;;;;5014604;28;20077;-72
2021/06/25 12:38:36;;;;;;;26.98;18.15;;;22.90;99.90;;;;;;5014925;28;20030;-72
2021/06/25 12:41:10;;;;;;;27.08;19.70;;;22.80;99.90;;;;;;5015077;28;20034;-72
2021/06/25 12:43:46;;;;;;;27.77;19.13;;;22.60;99.90;;;;;;5015189;28;20041;-72
2021/06/25 12:46:20;;;;;;;27.30;17.35;;;22.10;99.90;;;;;;5014696;28;20545;-72
2021/06/25 12:48:59;;;;;;;23.25;15.70;;;22.30;99.90;;;;;;5014783;28;20447;-72
2021/06/25 12:51:34;;;;;;;26.73;15.82;;;22.50;99.90;;;;;;5014664;28;20037;-72
2021/06/25 12:54:02;;;;;;;23.83;16.38;;;22.40;99.90;;;;;;5014778;28;20033;-71
2021/06/25 12:56:40;;;;;;;27.50;17.73;;;22.20;99.90;;;;;;4996954;28;20088;-72
2021/06/25 12:59:19;;;;;;;25.40;16.88;;;22.00;99.90;;;;;;5014758;28;20030;-71
2021/06/25 13:01:52;;;;;;;25.83;16.15;;;22.10;99.90;;;;;;4998804;28;20061;-72